Time,TemperatureF,DewpointF,PressureIn,WindDirection,WindDirectionDegrees,WindSpeedMPH,WindSpeedGustMPH,Humidity,HourlyPrecipIn,Conditions,Clouds,dailyrainin,SoftwareType,DateUTC
2013-06-10 00:10:00,55.4,48.3,30.04,South,180,4.2,-999.0,77,-99.99,,,0.00,Acu-Link.com,2013-06-10 08:10:00,
2013-06-10 00:26:00,55.0,48.6,30.03,South,180,3.7,-999.0,79,-99.99,,,0.00,Acu-Link.com,2013-06-10 08:26:00,
2013-06-10 00:57:00,54.5,48.5,30.04,SW,225,4.2,-999.0,80,-99.99,,,0.00,Acu-Link.com,2013-06-10 08:57:00,
2013-06-10 01:12:00,55.2,48.5,30.05,West,270,12.5,-999.0,78,-99.99,,,0.00,Acu-Link.com,2013-06-10 09:12:00,
2013-06-10 01:27:00,55.4,47.3,30.05,West,270,9.9,-999.0,74,-99.99,,,0.00,Acu-Link.com,2013-06-10 09:27:00,
2013-06-10 01:43:00,54.5,46.4,30.06,West,270,11.9,-999.0,74,-99.99,,,0.00,Acu-Link.com,2013-06-10 09:43:00,
2013-06-10 01:58:00,53.8,45.7,30.06,West,270,10.9,-999.0,74,-99.99,,,0.00,Acu-Link.com,2013-06-10 09:58:00,
2013-06-10 02:14:00,53.2,45.5,30.07,WSW,247,6.8,-999.0,75,-99.99,,,0.00,Acu-Link.com,2013-06-10 10:14:00,
2013-06-10 02:29:00,52.3,45.3,30.08,West,270,5.3,-999.0,77,-99.99,,,0.00,Acu-Link.com,2013-06-10 10:29:00,
2013-06-10 02:44:00,51.4,45.1,30.08,West,270,7.8,-999.0,79,-99.99,,,0.00,Acu-Link.com,2013-06-10 10:44:00,
2013-06-10 03:00:00,50.9,45.0,30.08,WSW,247,9.4,-999.0,80,-99.99,,,0.00,Acu-Link.com,2013-06-10 11:00:00,
2013-06-10 03:15:00,50.7,44.8,30.09,SW,225,6.8,-999.0,80,-99.99,,,0.00,Acu-Link.com,2013-06-10 11:15:00,
2013-06-10 03:31:00,50.5,44.6,30.09,WSW,247,6.3,-999.0,80,-99.99,,,0.00,Acu-Link.com,2013-06-10 11:31:00,
2013-06-10 03:46:00,50.5,44.6,30.10,SW,225,7.3,-999.0,80,-99.99,,,0.00,Acu-Link.com,2013-06-10 11:46:00,
2013-06-10 04:02:00,50.4,44.8,30.10,SSW,202,6.3,-999.0,81,-99.99,,,0.00,Acu-Link.com,2013-06-10 12:02:00,
2013-06-10 04:17:00,49.5,45.2,30.10,SW,225,6.3,-999.0,85,-99.99,,,0.00,Acu-Link.com,2013-06-10 12:17:00,
2013-06-10 04:32:00,49.6,45.6,30.10,SW,225,5.3,-999.0,86,-99.99,,,0.00,Acu-Link.com,2013-06-10 12:32:00,
2013-06-10 04:48:00,49.3,45.6,30.10,SSW,202,5.8,-999.0,87,-99.99,,,0.00,Acu-Link.com,2013-06-10 12:48:00,
2013-06-10 05:03:00,49.1,45.7,30.09,SSW,202,3.2,-999.0,88,-99.99,,,0.00,Acu-Link.com,2013-06-10 13:03:00,
2013-06-10 05:18:00,49.1,46.3,30.10,South,180,4.2,-999.0,90,-99.99,,,0.00,Acu-Link.com,2013-06-10 13:18:00,
2013-06-10 05:33:00,49.1,46.3,30.09,SSW,202,3.7,-999.0,90,-99.99,,,0.00,Acu-Link.com,2013-06-10 13:33:00,
2013-06-10 05:48:00,49.3,46.5,30.09,SSW,202,4.7,-999.0,90,-99.99,,,0.00,Acu-Link.com,2013-06-10 13:48:00,
2013-06-10 06:04:00,49.5,46.7,30.10,SSW,202,5.8,-999.0,90,-99.99,,,0.00,Acu-Link.com,2013-06-10 14:04:00,
2013-06-10 06:19:00,48.9,47.5,30.09,SSW,202,4.2,-999.0,95,-99.99,,,0.00,Acu-Link.com,2013-06-10 14:19:00,
2013-06-10 06:34:00,48.9,47.8,30.10,SSW,202,3.7,-999.0,96,-99.99,,,0.00,Acu-Link.com,2013-06-10 14:34:00,
2013-06-10 06:49:00,49.1,48.6,30.10,SSW,202,4.2,-999.0,98,-99.99,,,0.01,Acu-Link.com,2013-06-10 14:49:00,
2013-06-10 07:04:00,48.9,48.4,30.09,SW,225,6.8,-999.0,98,-99.99,,,0.02,Acu-Link.com,2013-06-10 15:04:00,
2013-06-10 07:20:00,49.3,48.8,30.09,SW,225,5.3,-999.0,98,-99.99,,,0.02,Acu-Link.com,2013-06-10 15:20:00,
2013-06-10 07:51:00,49.3,48.8,30.10,WSW,247,4.7,-999.0,98,-99.99,,,0.02,Acu-Link.com,2013-06-10 15:51:00,
2013-06-10 08:07:00,49.5,49.0,30.10,West,270,5.3,-999.0,98,-99.99,,,0.02,Acu-Link.com,2013-06-10 16:07:00,
2013-06-10 08:22:00,49.5,49.0,30.10,West,270,4.2,-999.0,98,-99.99,,,0.02,Acu-Link.com,2013-06-10 16:22:00,
2013-06-10 08:38:00,49.3,48.8,30.10,WSW,247,5.3,-999.0,98,-99.99,,,0.02,Acu-Link.com,2013-06-10 16:38:00,
2013-06-10 08:53:00,49.5,49.0,30.10,SW,225,4.2,-999.0,98,-99.99,,,0.02,Acu-Link.com,2013-06-10 16:53:00,
2013-06-10 09:08:00,49.5,49.0,30.10,SSW,202,2.7,-999.0,98,-99.99,,,0.02,Acu-Link.com,2013-06-10 17:08:00,
2013-06-10 09:23:00,49.5,49.0,30.10,SW,225,4.2,-999.0,98,-99.99,,,0.02,Acu-Link.com,2013-06-10 17:23:00,
2013-06-10 09:41:00,49.6,48.8,30.10,SSW,202,5.8,-999.0,97,-99.99,,,0.02,Acu-Link.com,2013-06-10 17:41:00,
2013-06-10 09:57:00,49.8,49.0,30.11,SW,225,4.2,-999.0,97,-99.99,,,0.02,Acu-Link.com,2013-06-10 17:57:00,
2013-06-10 10:12:00,50.2,49.4,30.10,WSW,247,5.3,-999.0,97,-99.99,,,0.02,Acu-Link.com,2013-06-10 18:12:00,
2013-06-10 10:27:00,50.4,49.0,30.10,SW,225,5.3,-999.0,95,-99.99,,,0.02,Acu-Link.com,2013-06-10 18:27:00,
2013-06-10 10:42:00,50.4,49.0,30.10,SW,225,9.4,-999.0,95,-99.99,,,0.02,Acu-Link.com,2013-06-10 18:42:00,
2013-06-10 10:57:00,50.7,48.5,30.09,SW,225,5.3,-999.0,92,-99.99,,,0.02,Acu-Link.com,2013-06-10 18:57:00,
2013-06-10 11:13:00,50.9,48.1,30.11,WSW,247,6.3,-999.0,90,-99.99,,,0.02,Acu-Link.com,2013-06-10 19:13:00,
2013-06-10 11:28:00,51.4,48.3,30.10,SW,225,6.3,-999.0,89,-99.99,,,0.02,Acu-Link.com,2013-06-10 19:28:00,
2013-06-10 11:43:00,52.0,48.3,30.10,WSW,247,7.3,-999.0,87,-99.99,,,0.02,Acu-Link.com,2013-06-10 19:43:00,
2013-06-10 11:58:00,52.5,48.1,30.10,West,270,9.9,-999.0,85,-99.99,,,0.02,Acu-Link.com,2013-06-10 19:58:00,
2013-06-10 12:14:00,52.7,48.0,30.10,SSW,202,9.4,-999.0,84,-99.99,,,0.02,Acu-Link.com,2013-06-10 20:14:00,
2013-06-10 12:29:00,53.4,47.7,30.09,SW,225,10.9,-999.0,81,-99.99,,,0.02,Acu-Link.com,2013-06-10 20:29:00,
2013-06-10 12:44:00,54.0,47.3,30.09,SW,225,11.9,-999.0,78,-99.99,,,0.02,Acu-Link.com,2013-06-10 20:44:00,
2013-06-10 12:59:00,54.3,46.5,30.08,West,270,11.4,-999.0,75,-99.99,,,0.02,Acu-Link.com,2013-06-10 20:59:00,
2013-06-10 13:14:00,54.5,46.7,30.09,West,270,10.4,-999.0,75,-99.99,,,0.02,Acu-Link.com,2013-06-10 21:14:00,
2013-06-10 13:46:00,55.2,44.4,30.09,West,270,8.9,-999.0,67,-99.99,,,0.02,Acu-Link.com,2013-06-10 21:46:00,
2013-06-10 14:16:00,55.9,44.3,30.09,SW,225,10.9,-999.0,65,-99.99,,,0.02,Acu-Link.com,2013-06-10 22:16:00,
2013-06-10 14:32:00,55.9,43.9,30.09,West,270,9.9,-999.0,64,-99.99,,,0.02,Acu-Link.com,2013-06-10 22:32:00,
2013-06-10 14:47:00,55.9,44.3,30.09,West,270,8.9,-999.0,65,-99.99,,,0.02,Acu-Link.com,2013-06-10 22:47:00,
2013-06-10 15:02:00,57.0,44.5,30.08,WSW,247,14.5,-999.0,63,-99.99,,,0.02,Acu-Link.com,2013-06-10 23:02:00,
2013-06-10 15:17:00,57.0,44.5,30.07,WSW,247,9.9,-999.0,63,-99.99,,,0.02,Acu-Link.com,2013-06-10 23:17:00,
2013-06-10 15:33:00,57.7,44.3,30.07,West,270,12.5,-999.0,61,-99.99,,,0.02,Acu-Link.com,2013-06-10 23:33:00,
2013-06-10 15:48:00,59.7,44.4,30.07,West,270,13.0,-999.0,57,-99.99,,,0.02,Acu-Link.com,2013-06-10 23:48:00,
2013-06-10 16:03:00,58.6,43.9,30.07,West,270,8.3,-999.0,58,-99.99,,,0.02,Acu-Link.com,2013-06-11 00:03:00,
2013-06-10 16:18:00,59.7,43.5,30.07,West,270,13.0,-999.0,55,-99.99,,,0.02,Acu-Link.com,2013-06-11 00:18:00,
2013-06-10 16:33:00,60.6,43.4,30.07,West,270,13.5,-999.0,53,-99.99,,,0.02,Acu-Link.com,2013-06-11 00:33:00,
2013-06-10 16:49:00,59.2,43.0,30.07,West,270,9.4,-999.0,55,-99.99,,,0.02,Acu-Link.com,2013-06-11 00:49:00,
2013-06-10 17:05:00,60.3,43.6,30.06,WNW,292,7.8,-999.0,54,-99.99,,,0.02,Acu-Link.com,2013-06-11 01:05:00,
2013-06-10 17:20:00,59.9,42.7,30.06,WSW,247,9.9,-999.0,53,-99.99,,,0.02,Acu-Link.com,2013-06-11 01:20:00,
2013-06-10 17:35:00,60.8,43.6,30.06,WSW,247,9.9,-999.0,53,-99.99,,,0.02,Acu-Link.com,2013-06-11 01:35:00,
2013-06-10 17:50:00,59.9,43.7,30.06,West,270,13.0,-999.0,55,-99.99,,,0.02,Acu-Link.com,2013-06-11 01:50:00,
2013-06-10 18:06:00,59.7,44.0,30.06,West,270,7.8,-999.0,56,-99.99,,,0.02,Acu-Link.com,2013-06-11 02:06:00,
2013-06-10 18:21:00,59.9,43.2,30.06,West,270,16.1,-999.0,54,-99.99,,,0.02,Acu-Link.com,2013-06-11 02:21:00,
2013-06-10 18:37:00,60.1,43.9,30.06,West,270,6.3,-999.0,55,-99.99,,,0.02,Acu-Link.com,2013-06-11 02:37:00,
2013-06-10 18:52:00,60.4,43.2,30.06,West,270,13.0,-999.0,53,-99.99,,,0.02,Acu-Link.com,2013-06-11 02:52:00,
2013-06-10 19:07:00,59.2,43.5,30.06,WSW,247,10.9,-999.0,56,-99.99,,,0.02,Acu-Link.com,2013-06-11 03:07:00,
2013-06-10 19:22:00,59.2,43.5,30.06,West,270,8.3,-999.0,56,-99.99,,,0.02,Acu-Link.com,2013-06-11 03:22:00,
2013-06-10 19:38:00,59.9,43.2,30.06,West,270,10.9,-999.0,54,-99.99,,,0.02,Acu-Link.com,2013-06-11 03:38:00,
2013-06-10 19:53:00,59.2,42.6,30.05,West,270,6.3,-999.0,54,-99.99,,,0.02,Acu-Link.com,2013-06-11 03:53:00,
2013-06-10 20:09:00,60.8,43.6,30.06,WSW,247,9.4,-999.0,53,-99.99,,,0.02,Acu-Link.com,2013-06-11 04:09:00,
2013-06-10 20:24:00,60.3,43.1,30.05,West,270,5.8,-999.0,53,-99.99,,,0.02,Acu-Link.com,2013-06-11 04:24:00,
2013-06-10 20:39:00,58.5,42.9,30.05,WSW,247,7.8,-999.0,56,-99.99,,,0.02,Acu-Link.com,2013-06-11 04:39:00,
2013-06-10 20:54:00,57.0,42.4,30.06,West,270,14.5,-999.0,58,-99.99,,,0.02,Acu-Link.com,2013-06-11 04:54:00,
2013-06-10 21:09:00,55.9,42.6,30.06,West,270,8.9,-999.0,61,-99.99,,,0.02,Acu-Link.com,2013-06-11 05:09:00,
2013-06-10 21:29:00,55.4,43.0,30.06,West,270,10.9,-999.0,63,-99.99,,,0.02,Acu-Link.com,2013-06-11 05:29:00,
2013-06-10 21:45:00,54.0,41.7,30.07,West,270,8.9,-999.0,63,-99.99,,,0.02,Acu-Link.com,2013-06-11 05:45:00,
2013-06-10 22:00:00,54.0,42.5,30.07,West,270,7.3,-999.0,65,-99.99,,,0.02,Acu-Link.com,2013-06-11 06:00:00,
2013-06-10 22:15:00,54.1,42.6,30.08,West,270,8.9,-999.0,65,-99.99,,,0.02,Acu-Link.com,2013-06-11 06:15:00,
2013-06-10 22:30:00,53.1,42.8,30.08,WSW,247,4.2,-999.0,68,-99.99,,,0.02,Acu-Link.com,2013-06-11 06:30:00,
2013-06-10 22:48:00,51.6,42.5,30.08,SW,225,3.7,-999.0,71,-99.99,,,0.02,Acu-Link.com,2013-06-11 06:48:00,
2013-06-10 23:03:00,50.4,42.1,30.08,SSW,202,2.7,-999.0,73,-99.99,,,0.02,Acu-Link.com,2013-06-11 07:03:00,
2013-06-10 23:18:00,50.2,42.2,30.09,South,180,3.2,-999.0,74,-99.99,,,0.02,Acu-Link.com,2013-06-11 07:18:00,
2013-06-10 23:34:00,49.1,41.9,30.09,SSW,202,2.7,-999.0,76,-99.99,,,0.02,Acu-Link.com,2013-06-11 07:34:00,
2013-06-10 23:49:00,48.6,42.1,30.09,SW,225,2.7,-999.0,78,-99.99,,,0.02,Acu-Link.com,2013-06-11 07:49:00,